METAR Data
IDs: Format: Raw Decoded Include TAF

Data at: 0650 UTC 01 Aug 2021

LKTB 010630Z 12014KT 6000 TSRA FEW024 FEW035CB SCT038 17/16 Q1007 NOSIG